Time;durP1;ratioP1;P1;durP2;ratioP2;P2;SDS_P1;SDS_P2;PMS_P1;PMS_P2;Temp;Humidity;BMP_temperature;BMP_pressure;BME280_temperature;BME280_humidity;BME280_pressure;Samples;Min_cycle;Max_cycle;Signal;HPM_P1;HPM_P2
2023/10/04 00:02:12;;;;;;;6.40;3.17;;;;;;;12.10;71.19;101045.50;4959291;28;20065;-44
2023/10/04 00:04:43;;;;;;;4.57;0.95;;;;;;;12.08;70.89;101054.16;4956968;28;20149;-44
2023/10/04 00:07:10;;;;;;;6.25;2.40;;;;;;;12.06;70.25;101045.47;4957831;28;20062;-48
2023/10/04 00:09:37;;;;;;;6.88;2.53;;;;;;;12.05;71.30;101043.72;4956878;28;20046;-50
2023/10/04 00:12:04;;;;;;;6.82;1.95;;;;;;;12.04;70.88;101035.91;4955553;28;20069;-48
2023/10/04 00:14:31;;;;;;;8.40;2.67;;;;;;;12.04;70.40;101036.78;4955352;28;20487;-47
2023/10/04 00:16:59;;;;;;;7.60;2.28;;;;;;;12.00;70.98;101035.03;4956246;28;20508;-47
2023/10/04 00:19:28;;;;;;;5.93;2.97;;;;;;;12.00;70.91;101041.94;4957815;28;20085;-46
2023/10/04 00:21:54;;;;;;;7.03;2.55;;;;;;;11.97;70.67;101040.19;4969776;28;20129;-46
2023/10/04 00:24:21;;;;;;;8.85;1.60;;;;;;;11.95;70.73;101039.28;4954470;28;20706;-47
2023/10/04 00:26:48;;;;;;;4.50;2.75;;;;;;;11.94;70.68;101037.56;4956010;28;20507;-44
2023/10/04 00:29:17;;;;;;;6.15;2.85;;;;;;;11.93;72.18;101054.00;4956791;28;20628;-47
2023/10/04 00:31:44;;;;;;;3.65;2.50;;;;;;;11.92;71.75;101049.69;4955285;28;20132;-50
2023/10/04 00:34:10;;;;;;;5.00;2.97;;;;;;;11.91;70.70;101048.81;4952299;28;20043;-46
2023/10/04 00:36:37;;;;;;;5.82;1.33;;;;;;;11.90;71.99;101048.78;4956387;28;21130;-48
2023/10/04 00:39:06;;;;;;;5.82;1.10;;;;;;;11.89;72.05;101057.44;4959690;28;21658;-48
2023/10/04 00:41:34;;;;;;;7.25;2.58;;;;;;;11.86;71.05;101058.28;4957751;28;20072;-48
2023/10/04 00:44:01;;;;;;;6.32;2.65;;;;;;;11.87;72.37;101048.75;4957106;28;20054;-45
2023/10/04 00:46:33;;;;;;;8.88;1.58;;;;;;;11.86;71.69;101047.03;4957100;28;20512;-48
2023/10/04 00:48:59;;;;;;;7.93;2.55;;;;;;;11.85;71.82;101050.47;4955496;28;20063;-48
2023/10/04 00:51:26;;;;;;;6.00;3.05;;;;;;;11.83;72.04;101048.72;4956099;28;20054;-47
2023/10/04 00:53:55;;;;;;;8.77;1.17;;;;;;;11.81;71.54;101044.38;4956084;28;20489;-49
2023/10/04 00:56:24;;;;;;;6.80;2.42;;;;;;;11.81;71.27;101045.25;4953279;28;20082;-46
2023/10/04 00:58:52;;;;;;;9.20;3.03;;;;;;;11.79;72.16;101046.97;4954602;28;20046;-46
2023/10/04 01:01:19;;;;;;;4.45;2.53;;;;;;;11.75;72.11;101050.38;4956712;28;20065;-49
2023/10/04 01:03:47;;;;;;;5.55;2.47;;;;;;;11.75;72.16;101052.97;4956703;28;20054;-47
2023/10/04 01:06:14;;;;;;;7.20;2.95;;;;;;;11.72;71.57;101047.75;4951868;28;20203;-47
2023/10/04 01:08:42;;;;;;;6.22;2.40;;;;;;;11.71;72.02;101046.03;4952907;28;20047;-46
2023/10/04 01:11:10;;;;;;;6.80;2.53;;;;;;;11.71;72.63;101051.22;4957813;28;20176;-48
2023/10/04 01:13:38;;;;;;;12.65;3.30;;;;;;;11.69;72.52;101047.75;4953510;28;20050;-45
2023/10/04 01:16:09;;;;;;;7.68;1.40;;;;;;;11.68;72.55;101046.00;4957157;28;20047;-49
2023/10/04 01:18:38;;;;;;;8.93;3.00;;;;;;;11.67;71.73;101041.66;4955482;28;20050;-47
2023/10/04 01:21:05;;;;;;;6.78;2.92;;;;;;;11.66;71.72;101039.94;4955246;28;20058;-47
2023/10/04 01:23:33;;;;;;;9.77;2.97;;;;;;;11.64;72.04;101041.63;4955162;28;20042;-49
2023/10/04 01:26:00;;;;;;;7.43;2.95;;;;;;;11.64;72.16;101044.22;4954748;28;20092;-46
2023/10/04 01:28:28;;;;;;;4.22;2.45;;;;;;;11.62;72.33;101043.38;4956141;28;20046;-48
2023/10/04 01:30:59;;;;;;;5.05;2.67;;;;;;;11.59;73.08;101027.75;4955891;28;20142;-48
2023/10/04 01:33:28;;;;;;;10.85;2.72;;;;;;;11.57;72.77;101033.81;4959646;28;20046;-45
2023/10/04 01:35:56;;;;;;;7.88;2.90;;;;;;;11.57;73.11;101023.44;4956879;28;20061;-47
2023/10/04 01:38:25;;;;;;;4.38;2.72;;;;;;;11.55;72.10;101027.72;4967536;28;20157;-46
2023/10/04 01:40:54;;;;;;;5.93;2.53;;;;;;;11.54;72.21;101031.19;4974222;28;20062;-47
2023/10/04 01:43:24;;;;;;;6.03;2.38;;;;;;;11.53;72.04;101021.69;4976522;28;20053;-46
2023/10/04 01:45:57;;;;;;;8.35;2.33;;;;;;;11.53;73.43;101018.19;4991638;28;20045;-45
2023/10/04 01:48:26;;;;;;;6.10;2.83;;;;;;;11.53;72.77;101013.91;4954749;28;20054;-47
2023/10/04 01:50:54;;;;;;;11.73;3.15;;;;;;;11.52;72.43;101012.13;4964884;28;20046;-48
2023/10/04 01:53:23;;;;;;;6.30;2.67;;;;;;;11.54;73.32;101007.84;4948448;28;20106;-44
2023/10/04 01:55:49;;;;;;;5.00;1.73;;;;;;;11.54;72.69;101015.63;4949691;28;20431;-47
2023/10/04 01:58:23;;;;;;;5.57;2.92;;;;;;;11.54;73.14;101015.63;4963782;28;20138;-47
2023/10/04 02:00:50;;;;;;;10.48;3.42;;;;;;;11.52;72.25;101012.13;4954537;28;20065;-45
2023/10/04 02:03:17;;;;;;;9.82;1.90;;;;;;;11.51;73.09;101012.13;4938841;28;20463;-48
2023/10/04 02:05:45;;;;;;;12.88;1.92;;;;;;;11.51;73.04;101010.41;4944095;28;20468;-46
2023/10/04 02:08:12;;;;;;;8.32;2.88;;;;;;;11.49;72.10;101006.94;4954043;28;20054;-47
2023/10/04 02:10:41;;;;;;;6.15;2.72;;;;;;;11.47;72.41;100998.25;4948069;28;20059;-48
2023/10/04 02:13:14;;;;;;;4.70;1.25;;;;;;;11.47;72.35;101013.81;4953638;28;20134;-49
2023/10/04 02:15:42;;;;;;;8.80;3.15;;;;;;;11.47;73.09;101013.81;4956583;28;20158;-50
2023/10/04 02:18:09;;;;;;;8.27;2.95;;;;;;;11.45;73.32;101010.34;4962102;28;20078;-47
2023/10/04 02:20:36;;;;;;;11.68;4.63;;;;;;;11.45;73.60;101015.53;4959835;28;20058;-47
2023/10/04 02:23:07;;;;;;;8.23;3.65;;;;;;;11.43;73.39;101012.06;4958482;28;20059;-46
2023/10/04 02:25:34;;;;;;;5.75;2.30;;;;;;;11.42;72.59;101010.34;4958927;28;20046;-47
2023/10/04 02:28:06;;;;;;;7.80;2.92;;;;;;;11.41;73.64;100998.19;4959755;28;20059;-45
2023/10/04 02:30:33;;;;;;;9.48;3.08;;;;;;;11.39;73.19;100997.31;4958844;28;20042;-46
2023/10/04 02:33:00;;;;;;;11.45;3.22;;;;;;;11.38;73.19;101003.38;4956905;28;20051;-47
2023/10/04 02:35:27;;;;;;;11.10;3.42;;;;;;;11.36;73.41;101000.78;4957625;28;20487;-47
2023/10/04 02:37:59;;;;;;;5.78;3.10;;;;;;;11.37;73.79;101001.63;4958225;28;20082;-48
2023/10/04 02:40:32;;;;;;;6.85;3.35;;;;;;;11.36;73.67;100997.28;4969695;28;20047;-46
2023/10/04 02:42:59;;;;;;;4.90;2.50;;;;;;;11.32;73.49;100999.84;4957568;28;20074;-47
2023/10/04 02:45:29;;;;;;;10.70;3.08;;;;;;;11.32;72.65;101004.19;4957948;28;20051;-48
2023/10/04 02:47:56;;;;;;;9.02;3.60;;;;;;;11.31;73.07;101003.31;4956852;28;20055;-49
2023/10/04 02:50:24;;;;;;;6.32;1.50;;;;;;;11.31;73.85;100998.13;4953866;28;21114;-47
2023/10/04 02:52:51;;;;;;;4.60;1.42;;;;;;;11.29;74.28;100999.81;4954562;28;20598;-51
2023/10/04 02:55:19;;;;;;;10.57;2.85;;;;;;;11.30;73.50;101006.75;4957247;28;20145;-47
2023/10/04 02:57:49;;;;;;;9.18;3.35;;;;;;;11.29;73.93;101007.59;4958515;28;20053;-45
2023/10/04 03:00:19;;;;;;;9.18;3.40;;;;;;;11.27;74.40;101001.53;4958038;28;20046;-49
2023/10/04 03:02:49;;;;;;;9.88;3.13;;;;;;;11.28;74.38;101005.88;4969829;28;20046;-45
2023/10/04 03:05:19;;;;;;;10.77;3.38;;;;;;;11.28;73.24;101002.44;4955681;28;20503;-46
2023/10/04 03:07:47;;;;;;;8.00;1.70;;;;;;;11.27;74.39;101006.72;4958882;28;20449;-45
2023/10/04 03:10:23;;;;;;;8.85;3.47;;;;;;;11.27;74.01;101011.91;4956174;28;20046;-47
2023/10/04 03:15:29;;;;;;;5.28;1.58;;;;;;;11.26;73.56;101005.00;5010858;27;20419;-48
2023/10/04 03:17:57;;;;;;;9.13;2.20;;;;;;;11.25;73.31;101004.97;5011216;28;20085;-45
2023/10/04 03:20:29;;;;;;;9.55;2.50;;;;;;;11.24;73.75;101001.50;5011179;28;20053;-48
2023/10/04 03:22:56;;;;;;;6.78;2.33;;;;;;;11.23;73.71;101002.38;5008337;28;20049;-48
2023/10/04 03:25:24;;;;;;;9.50;1.85;;;;;;;11.22;74.17;100999.75;5007889;28;20057;-47
2023/10/04 03:27:52;;;;;;;7.90;2.08;;;;;;;11.20;73.38;100997.16;5013229;28;20373;-46
2023/10/04 03:30:18;;;;;;;10.23;1.85;;;;;;;11.19;74.03;100998.00;5012584;28;20049;-47
2023/10/04 03:32:51;;;;;;;10.13;2.20;;;;;;;11.18;73.17;100993.69;5010842;28;20144;-47
2023/10/04 03:35:21;;;;;;;5.82;1.55;;;;;;;11.16;74.24;100997.97;5011852;28;20053;-45
2023/10/04 03:37:54;;;;;;;5.28;2.10;;;;;;;11.15;73.71;101006.63;5011237;28;20071;-51
2023/10/04 03:40:22;;;;;;;6.50;1.75;;;;;;;11.13;73.57;101004.00;5008216;28;20049;-47
2023/10/04 03:42:49;;;;;;;7.85;1.98;;;;;;;11.13;74.11;101008.31;5014072;28;20068;-49
2023/10/04 03:45:22;;;;;;;6.55;1.90;;;;;;;11.11;73.92;101007.44;5008467;28;20058;-47
2023/10/04 03:47:50;;;;;;;8.32;2.15;;;;;;;11.11;73.84;101010.03;5006317;28;20049;-45
2023/10/04 03:50:17;;;;;;;7.18;2.05;;;;;;;11.11;74.68;100999.66;5011517;28;20042;-46
2023/10/04 03:52:44;;;;;;;7.13;2.20;;;;;;;11.08;74.53;100995.28;5010230;28;20053;-46
2023/10/04 03:55:12;;;;;;;9.10;1.30;;;;;;;11.08;73.78;100997.03;5012851;28;20049;-48
2023/10/04 03:57:42;;;;;;;6.85;1.48;;;;;;;11.07;75.17;100992.69;5011047;28;20414;-49
2023/10/04 04:00:13;;;;;;;12.48;2.53;;;;;;;11.06;75.18;100997.00;5010960;28;20102;-47
2023/10/04 04:02:40;;;;;;;10.50;2.17;;;;;;;11.06;75.00;101004.78;5015263;28;20152;-47
2023/10/04 04:05:09;;;;;;;10.98;1.88;;;;;;;11.05;74.42;101001.31;5012966;28;20211;-46
2023/10/04 04:07:37;;;;;;;8.95;1.98;;;;;;;11.04;74.43;101004.75;5007897;28;20053;-47
2023/10/04 04:10:05;;;;;;;6.43;1.27;;;;;;;11.03;75.13;101008.22;5009401;28;20077;-47
2023/10/04 04:12:31;;;;;;;8.05;1.85;;;;;;;11.04;75.12;101009.94;5013256;28;20107;-45
2023/10/04 04:14:58;;;;;;;11.88;2.72;;;;;;;11.05;75.47;101006.50;5007671;28;20541;-45
2023/10/04 04:17:27;;;;;;;9.18;2.80;;;;;;;11.05;74.86;101006.50;5014573;28;20077;-47
2023/10/04 04:19:53;;;;;;;8.27;2.10;;;;;;;11.04;74.87;101009.94;5012106;28;20045;-47
2023/10/04 04:22:23;;;;;;;8.20;1.50;;;;;;;11.04;74.34;101009.94;5014361;28;20056;-47
2023/10/04 04:24:50;;;;;;;7.18;1.90;;;;;;;11.04;75.26;101004.75;5009075;28;20060;-46
2023/10/04 04:27:22;;;;;;;10.45;1.75;;;;;;;11.04;75.49;101009.06;4998092;28;20080;-47
2023/10/04 04:29:52;;;;;;;5.22;1.80;;;;;;;11.02;75.50;101003.88;4995282;28;20050;-47
2023/10/04 04:32:26;;;;;;;5.60;1.98;;;;;;;11.03;75.67;101002.16;5004853;28;20068;-43
2023/10/04 04:34:54;;;;;;;8.52;2.72;;;;;;;10.99;75.33;100996.06;4999121;28;20045;-46
2023/10/04 04:37:26;;;;;;;7.25;1.77;;;;;;;10.99;74.86;101006.44;4999844;28;20053;-45
2023/10/04 04:39:53;;;;;;;5.25;1.60;;;;;;;10.98;75.29;100994.31;4997419;28;20474;-45
2023/10/04 04:42:30;;;;;;;10.13;1.75;;;;;;;10.97;75.62;100992.59;4996044;28;20058;-45
2023/10/04 04:44:57;;;;;;;6.68;1.48;;;;;;;10.98;74.85;100999.50;4999435;28;20038;-45
2023/10/04 04:47:23;;;;;;;4.47;1.40;;;;;;;10.97;75.00;100997.78;4998849;28;20518;-45
2023/10/04 04:49:51;;;;;;;8.85;1.67;;;;;;;10.96;75.80;101003.81;4998378;28;20111;-45
2023/10/04 04:52:17;;;;;;;8.15;1.63;;;;;;;10.97;75.51;101000.38;4994844;28;20061;-45
2023/10/04 04:54:44;;;;;;;9.52;1.83;;;;;;;10.96;75.72;101001.22;4993435;28;20052;-46
2023/10/04 04:57:11;;;;;;;5.50;1.75;;;;;;;10.97;75.05;100997.78;4996292;28;20070;-46
2023/10/04 04:59:39;;;;;;;4.13;1.23;;;;;;;10.97;75.08;101002.97;4998707;28;20618;-48
2023/10/04 05:02:08;;;;;;;5.03;1.83;;;;;;;10.97;75.02;101000.38;4991698;28;20152;-46
2023/10/04 05:04:35;;;;;;;7.32;2.28;;;;;;;10.96;75.31;101001.22;4996524;28;20046;-49
2023/10/04 05:07:06;;;;;;;5.10;1.50;;;;;;;10.96;74.96;101001.22;4996578;28;20140;-45
2023/10/04 05:09:33;;;;;;;5.80;1.50;;;;;;;10.93;74.86;101002.06;4996001;28;20061;-47
2023/10/04 05:11:59;;;;;;;10.10;1.73;;;;;;;10.93;74.76;101004.66;4996326;28;20053;-46
2023/10/04 05:14:26;;;;;;;5.28;1.02;;;;;;;10.94;75.60;101008.09;4997868;28;20043;-44
2023/10/04 05:16:53;;;;;;;7.72;2.38;;;;;;;10.92;74.83;101007.22;4995597;28;20050;-44
2023/10/04 05:19:19;;;;;;;9.77;1.73;;;;;;;10.92;75.74;101009.81;4995627;28;20418;-46
2023/10/04 05:21:46;;;;;;;8.38;2.05;;;;;;;10.93;75.78;101008.97;4995133;28;20144;-44
2023/10/04 05:24:13;;;;;;;13.85;5.28;;;;;;;10.91;75.87;101002.91;5000018;28;20049;-44
2023/10/04 05:26:40;;;;;;;49.00;21.08;;;;;;;10.92;75.15;101004.63;4995507;28;20041;-47
2023/10/04 05:29:07;;;;;;;10.10;4.43;;;;;;;10.90;75.73;100995.97;4999877;28;20554;-46
2023/10/04 05:31:34;;;;;;;4.70;1.35;;;;;;;10.91;74.85;100992.53;4990349;28;20058;-46
2023/10/04 05:34:01;;;;;;;7.18;1.85;;;;;;;10.92;75.57;100994.28;4997896;28;20056;-46
2023/10/04 05:36:28;;;;;;;11.00;1.60;;;;;;;10.91;74.93;100992.53;4997492;28;20046;-45
2023/10/04 05:38:55;;;;;;;4.10;1.40;;;;;;;10.92;75.23;101000.31;4994987;28;20054;-50
2023/10/04 05:41:22;;;;;;;9.38;1.52;;;;;;;10.93;75.67;100983.94;4996225;28;20050;-46
2023/10/04 05:43:49;;;;;;;6.50;2.13;;;;;;;10.93;75.71;100986.50;4996807;28;20045;-44
2023/10/04 05:46:16;;;;;;;8.52;1.70;;;;;;;10.93;76.09;100981.34;4998209;28;20077;-49
2023/10/04 05:48:43;;;;;;;11.43;2.13;;;;;;;10.95;75.67;100988.25;4990319;28;20046;-50
2023/10/04 05:51:09;;;;;;;3.22;1.13;;;;;;;10.94;75.08;100987.38;4985244;28;20154;-45
2023/10/04 05:53:37;;;;;;;3.40;1.52;;;;;;;10.93;76.20;100980.44;4987010;28;20049;-47
2023/10/04 05:56:05;;;;;;;10.63;2.60;;;;;;;10.93;76.31;100981.34;4999390;28;20506;-47
2023/10/04 05:58:32;;;;;;;7.78;1.77;;;;;;;10.93;75.87;100980.44;4993292;28;20054;-46
2023/10/04 06:00:59;;;;;;;4.80;1.67;;;;;;;10.93;76.19;100985.63;4989653;28;20474;-46
2023/10/04 06:03:26;;;;;;;8.25;2.85;;;;;;;10.93;75.44;100986.50;4993226;28;20046;-49
2023/10/04 06:05:56;;;;;;;11.73;2.60;;;;;;;10.93;75.73;100988.22;4997352;28;20144;-46
2023/10/04 06:08:22;;;;;;;12.00;1.52;;;;;;;10.95;76.73;100986.53;4995558;28;20046;-46
2023/10/04 06:10:51;;;;;;;4.15;1.15;;;;;;;10.88;76.33;100982.13;5001199;28;20061;-46
2023/10/04 06:13:18;;;;;;;5.18;1.90;;;;;;;10.93;75.66;100993.41;4981168;28;20140;-50
2023/10/04 06:15:47;;;;;;;6.72;1.50;;;;;;;10.95;75.60;100983.94;4993995;28;20124;-45
2023/10/04 06:18:16;;;;;;;4.10;1.80;;;;;;;10.94;76.30;100992.53;4997900;28;20386;-46
2023/10/04 06:20:45;;;;;;;4.53;1.70;;;;;;;10.95;76.21;100983.94;4997992;28;20092;-45
2023/10/04 06:23:14;;;;;;;9.90;1.45;;;;;;;10.97;76.34;100997.78;4984242;28;20056;-49
2023/10/04 06:25:45;;;;;;;4.38;1.58;;;;;;;10.98;76.49;101003.84;4994778;28;20124;-45
2023/10/04 06:28:12;;;;;;;5.57;1.08;;;;;;;10.98;75.73;100999.50;4994906;28;20487;-46
2023/10/04 06:30:40;;;;;;;4.43;1.55;;;;;;;10.98;76.75;101002.09;4996985;28;20057;-46
2023/10/04 06:33:09;;;;;;;4.15;1.77;;;;;;;10.99;75.58;101003.84;4995137;28;20487;-47
2023/10/04 06:35:38;;;;;;;10.82;1.73;;;;;;;10.99;75.71;101011.63;4991840;28;20116;-44
2023/10/04 06:38:08;;;;;;;5.25;1.38;;;;;;;11.02;75.65;101008.19;4990712;28;20887;-48
2023/10/04 06:40:36;;;;;;;7.90;1.75;;;;;;;11.02;76.49;101011.63;4999329;28;20138;-45
2023/10/04 06:43:05;;;;;;;6.28;2.25;;;;;;;11.04;76.13;101015.13;4998387;28;20080;-45
2023/10/04 06:45:34;;;;;;;8.43;2.78;;;;;;;11.08;75.83;101007.41;4998058;28;20050;-46
2023/10/04 06:48:03;;;;;;;12.80;5.75;;;;;;;11.10;76.55;101018.63;4990371;28;20061;-44
2023/10/04 06:50:32;;;;;;;29.83;10.02;;;;;;;11.10;76.09;101014.34;4994231;28;20057;-44
2023/10/04 06:53:02;;;;;;;21.70;6.05;;;;;;;11.14;76.55;101020.41;4994041;28;20144;-45
2023/10/04 06:55:30;;;;;;;23.98;6.40;;;;;;;11.17;76.39;101010.06;4991561;28;20050;-45
2023/10/04 06:57:57;;;;;;;12.65;3.63;;;;;;;11.18;75.99;101010.09;4989885;28;20621;-46
2023/10/04 07:00:30;;;;;;;15.13;4.40;;;;;;;11.23;76.75;101009.25;4990151;28;20141;-46
2023/10/04 07:02:58;;;;;;;9.98;1.98;;;;;;;11.27;76.52;101021.41;4988475;28;20053;-47
2023/10/04 07:05:29;;;;;;;14.02;3.45;;;;;;;11.30;76.50;101017.13;4991983;28;20077;-45
2023/10/04 07:07:57;;;;;;;17.92;4.00;;;;;;;11.35;76.24;101018.91;4993626;28;20050;-46
2023/10/04 07:10:27;;;;;;;8.45;2.75;;;;;;;11.39;76.43;101020.66;4993969;28;20140;-43
2023/10/04 07:12:55;;;;;;;6.10;1.95;;;;;;;11.44;76.73;101026.75;4994200;28;20054;-45
2023/10/04 07:15:24;;;;;;;7.07;2.17;;;;;;;11.49;76.91;101025.09;4995841;28;20069;-43
2023/10/04 07:17:51;;;;;;;4.47;1.30;;;;;;;11.52;75.94;101025.09;4990294;28;20061;-47
2023/10/04 07:20:18;;;;;;;5.85;1.60;;;;;;;11.59;76.70;101032.97;4994631;28;20093;-45
2023/10/04 07:22:50;;;;;;;7.57;1.98;;;;;;;11.64;76.56;101026.06;4991988;28;20101;-47
2023/10/04 07:25:17;;;;;;;6.45;1.60;;;;;;;11.67;75.73;101031.28;4995027;28;20068;-45
2023/10/04 07:27:46;;;;;;;10.27;2.05;;;;;;;11.71;76.70;101020.06;4995443;28;20049;-44
2023/10/04 07:30:14;;;;;;;27.00;7.55;;;;;;;11.75;75.66;101019.25;4993501;28;20073;-46
2023/10/04 07:32:42;;;;;;;9.65;3.22;;;;;;;11.80;76.15;101012.38;4991224;28;20080;-46
2023/10/04 07:35:12;;;;;;;6.95;2.05;;;;;;;11.87;75.37;101012.41;4993898;28;20128;-45
2023/10/04 07:37:40;;;;;;;;;;;;;;;11.80;75.39;101014.97;4991049;28;20053;-45
2023/10/04 07:40:09;;;;;;;9.82;1.60;;;;;;;11.95;76.34;101018.53;4993389;28;19976;-46
2023/10/04 07:42:38;;;;;;;6.03;1.45;;;;;;;12.01;76.24;101013.38;4995906;28;20064;-45
2023/10/04 07:45:08;;;;;;;4.30;1.35;;;;;;;12.06;76.40;101019.50;4993988;28;20046;-45
2023/10/04 07:47:36;;;;;;;3.97;1.50;;;;;;;12.16;76.36;101010.03;4996142;28;20057;-45
2023/10/04 07:50:05;;;;;;;4.10;1.23;;;;;;;12.25;74.82;101009.22;4995648;28;20132;-46
2023/10/04 07:52:32;;;;;;;5.75;1.27;;;;;;;12.34;74.89;101009.28;4995528;28;20054;-45
2023/10/04 07:54:59;;;;;;;6.28;1.08;;;;;;;12.42;75.59;101016.25;4996695;28;20104;-44
2023/10/04 07:57:27;;;;;;;4.68;1.55;;;;;;;12.52;75.96;101017.16;5001163;28;20045;-44
2023/10/04 07:59:54;;;;;;;5.45;1.25;;;;;;;12.60;74.73;101011.13;4996660;28;20048;-46
2023/10/04 08:02:21;;;;;;;5.75;1.92;;;;;;;12.67;74.60;101012.03;4999824;28;20057;-45
2023/10/04 08:04:48;;;;;;;3.97;1.40;;;;;;;12.69;74.85;101007.72;4990795;28;20054;-44
2023/10/04 08:07:18;;;;;;;3.63;1.50;;;;;;;12.71;74.78;101015.53;4994196;28;20050;-46
2023/10/04 08:09:45;;;;;;;8.27;2.10;;;;;;;12.71;74.79;101018.13;4998426;28;20057;-45
2023/10/04 08:12:12;;;;;;;5.15;2.22;;;;;;;12.72;75.42;101022.44;4997622;28;20053;-47
2023/10/04 08:14:39;;;;;;;6.00;1.90;;;;;;;12.76;75.12;101023.34;4991783;28;20136;-45
2023/10/04 08:17:06;;;;;;;7.28;1.77;;;;;;;12.78;74.14;101038.09;4994633;28;20049;-47
2023/10/04 08:19:33;;;;;;;3.95;1.70;;;;;;;12.84;75.17;101034.63;4999757;28;20645;-44
2023/10/04 08:22:00;;;;;;;6.35;2.53;;;;;;;12.91;75.06;101033.81;4995395;28;20992;-47
2023/10/04 08:24:26;;;;;;;9.27;2.15;;;;;;;13.01;74.66;101026.91;4994624;28;20080;-47
2023/10/04 08:26:53;;;;;;;6.45;2.08;;;;;;;13.06;75.04;101025.16;4997431;28;20490;-47
2023/10/04 08:29:24;;;;;;;10.85;2.00;;;;;;;13.09;75.26;101030.38;4994648;28;20054;-47
2023/10/04 08:31:50;;;;;;;11.35;1.60;;;;;;;13.13;75.34;101031.25;4996763;28;20049;-45
2023/10/04 08:34:18;;;;;;;11.80;2.83;;;;;;;13.18;74.63;101034.75;4993348;28;20057;-45
2023/10/04 08:36:45;;;;;;;5.95;2.00;;;;;;;13.24;74.48;101039.06;4991745;28;20529;-46
2023/10/04 08:39:13;;;;;;;3.90;1.23;;;;;;;13.30;75.26;101039.09;4997802;28;20172;-45
2023/10/04 08:41:40;;;;;;;5.72;1.90;;;;;;;13.40;74.07;101039.13;4992907;28;20050;-46
2023/10/04 08:44:07;;;;;;;4.20;1.75;;;;;;;13.52;74.42;101033.97;4995409;28;20050;-49
2023/10/04 08:46:36;;;;;;;10.43;1.75;;;;;;;13.72;74.36;101040.91;4998406;28;20065;-46
2023/10/04 08:49:05;;;;;;;8.75;3.17;;;;;;;14.08;74.29;101031.31;4997853;28;20053;-48
2023/10/04 08:51:50;;;;;;;19.25;2.95;;;;;;;14.44;73.50;101030.38;4987330;28;20062;-48
2023/10/04 08:54:26;;;;;;;15.07;4.10;;;;;;;14.96;73.08;101023.25;4995189;28;20466;-47
2023/10/04 08:57:01;;;;;;;7.00;1.80;;;;;;;15.44;72.28;101029.91;4989631;28;20046;-47
2023/10/04 08:59:29;;;;;;;7.63;1.92;;;;;;;15.74;71.77;101027.94;4993018;28;21445;-46
2023/10/04 09:01:57;;;;;;;11.13;1.85;;;;;;;16.25;71.36;101031.84;4998409;28;20053;-47
2023/10/04 09:04:26;;;;;;;5.13;1.35;;;;;;;16.84;70.51;101025.91;4995778;28;20050;-46
2023/10/04 09:06:53;;;;;;;10.63;2.20;;;;;;;17.31;69.13;101031.41;4998173;28;20058;-46
2023/10/04 09:09:20;;;;;;;8.15;2.67;;;;;;;17.55;68.27;101031.91;4996899;28;20058;-51
2023/10/04 09:11:47;;;;;;;3.20;1.15;;;;;;;17.57;67.50;101037.97;5000855;28;20133;-48
2023/10/04 09:14:15;;;;;;;11.13;2.85;;;;;;;17.47;67.78;101029.38;4999267;28;20061;-50
2023/10/04 09:16:41;;;;;;;5.13;1.50;;;;;;;17.43;67.29;101026.84;4995577;28;20046;-49
2023/10/04 09:19:21;;;;;;;7.63;1.85;;;;;;;17.34;67.03;101027.84;4996111;28;20069;-49
2023/10/04 09:21:51;;;;;;;16.25;4.03;;;;;;;17.40;67.60;101019.91;4992541;28;20491;-48
2023/10/04 09:24:18;;;;;;;9.45;2.15;;;;;;;17.52;67.34;101025.81;4997362;28;20060;-47
2023/10/04 09:29:38;;;;;;;11.20;2.63;;;;;;;17.34;65.86;101022.63;5050290;27;20418;-47
2023/10/04 09:32:05;;;;;;;10.45;2.88;;;;;;;17.23;65.89;101024.53;5009070;28;20049;-47
2023/10/04 09:34:33;;;;;;;4.32;1.88;;;;;;;17.24;66.14;101028.88;5008494;28;20049;-46
2023/10/04 09:37:00;;;;;;;7.93;3.20;;;;;;;17.55;66.33;101029.28;5009437;28;20064;-47
2023/10/04 09:39:31;;;;;;;11.18;3.08;;;;;;;17.86;66.11;101033.13;5009956;28;21263;-45
2023/10/04 09:42:03;;;;;;;11.52;2.95;;;;;;;18.22;65.45;101028.16;5008165;28;20176;-47
2023/10/04 09:44:31;;;;;;;11.00;2.70;;;;;;;18.62;64.92;101025.63;5008672;28;20507;-45
2023/10/04 09:47:01;;;;;;;8.88;2.70;;;;;;;18.83;64.54;101021.69;5006743;28;20046;-48
2023/10/04 09:52:07;;;;;;;5.40;1.95;;;;;;;19.27;63.52;101026.84;5048782;28;20414;-47
2023/10/04 09:54:35;;;;;;;8.30;1.67;;;;;;;19.44;63.12;101019.44;4976693;28;20057;-47
2023/10/04 09:57:06;;;;;;;4.93;1.55;;;;;;;19.49;62.67;101023.69;4969398;28;20074;-49
2023/10/04 09:59:34;;;;;;;9.52;2.38;;;;;;;19.70;62.63;101020.56;4971023;28;20054;-46
2023/10/04 10:02:02;;;;;;;7.13;1.58;;;;;;;19.94;62.18;101019.09;4970480;28;20054;-47
2023/10/04 10:04:31;;;;;;;5.70;1.30;;;;;;;20.03;61.26;101021.47;4971467;28;20046;-46
2023/10/04 10:09:46;;;;;;;46.00;14.63;;;;;;;20.14;60.32;101020.34;5068968;27;20418;-47
2023/10/04 10:12:31;;;;;;;25.50;8.65;;;;;;;20.40;60.08;101024.03;5046435;28;20052;-51
2023/10/04 10:15:00;;;;;;;10.45;5.60;;;;;;;20.87;59.65;101017.41;5051507;28;20048;-47
2023/10/04 10:17:28;;;;;;;4.90;2.70;;;;;;;21.12;58.93;101021.91;5052847;28;20060;-48
2023/10/04 10:19:55;;;;;;;4.85;2.58;;;;;;;21.10;58.29;101016.69;5055690;28;20040;-49
2023/10/04 10:22:22;;;;;;;7.35;4.13;;;;;;;21.19;58.01;101023.47;5050738;28;20071;-48
2023/10/04 10:27:28;;;;;;;5.53;2.13;;;;;;;21.00;57.17;101029.28;5066421;27;20398;-50
2023/10/04 10:30:06;;;;;;;5.32;1.50;;;;;;;20.78;57.38;101026.44;5037568;28;20472;-48
2023/10/04 10:32:33;;;;;;;6.32;2.10;;;;;;;20.50;57.41;101022.81;5038198;28;20092;-49
2023/10/04 10:35:07;;;;;;;6.95;2.33;;;;;;;20.22;57.36;101018.34;5047427;28;20162;-48
2023/10/04 10:37:38;;;;;;;6.25;1.20;;;;;;;19.97;57.19;101015.50;5066859;28;20056;-48
2023/10/04 10:40:26;;;;;;;6.47;2.53;;;;;;;19.69;57.38;101011.81;5050942;28;20110;-46
2023/10/04 10:43:09;;;;;;;7.28;2.17;;;;;;;19.43;58.41;101013.34;5062297;28;20549;-46
2023/10/04 10:45:37;;;;;;;4.05;1.02;;;;;;;19.34;58.34;101013.56;5033746;28;20165;-48
2023/10/04 10:48:08;;;;;;;7.88;2.70;;;;;;;19.21;57.91;101012.97;5050666;28;20563;-49
2023/10/04 10:50:38;;;;;;;7.25;2.13;;;;;;;19.11;58.19;101017.59;5051876;28;20125;-48
2023/10/04 10:53:09;;;;;;;4.10;1.30;;;;;;;19.03;58.67;101017.75;5051809;28;20327;-48
2023/10/04 10:55:38;;;;;;;7.38;1.80;;;;;;;18.91;58.77;101016.25;5050528;28;20044;-46
2023/10/04 10:58:07;;;;;;;;;;;;;;;18.74;59.64;101014.00;5052651;28;20044;-46
2023/10/04 11:00:35;;;;;;;6.53;2.10;;;;;;;18.78;59.59;101012.19;5046779;28;19920;-48
2023/10/04 11:03:09;;;;;;;7.68;1.50;;;;;;;18.68;59.20;101014.97;5051898;28;20040;-49
2023/10/04 11:05:36;;;;;;;6.25;2.92;;;;;;;18.59;59.12;101005.56;5030089;28;20052;-46
2023/10/04 11:08:07;;;;;;;10.73;4.18;;;;;;;18.49;59.71;101015.38;5046079;28;20053;-45
2023/10/04 11:10:36;;;;;;;4.45;1.50;;;;;;;18.40;59.92;101005.06;5029699;28;20049;-47
2023/10/04 11:13:07;;;;;;;6.93;1.73;;;;;;;18.36;60.12;101008.66;5031696;28;20057;-47
2023/10/04 11:15:36;;;;;;;6.40;1.85;;;;;;;18.29;59.87;101002.66;5032678;28;20286;-47
2023/10/04 11:18:05;;;;;;;4.18;1.02;;;;;;;18.41;60.44;100991.03;5030155;28;20049;-48
2023/10/04 11:20:36;;;;;;;5.55;1.10;;;;;;;18.70;60.95;100989.59;5030118;28;20124;-43
2023/10/04 11:23:03;;;;;;;5.63;1.25;;;;;;;19.02;60.61;100992.41;5029061;28;20417;-45
2023/10/04 11:25:31;;;;;;;4.47;1.30;;;;;;;19.30;60.35;100985.66;5028412;28;20073;-45
2023/10/04 11:27:59;;;;;;;9.07;1.20;;;;;;;19.47;60.26;100982.59;5042447;28;20052;-46
2023/10/04 11:30:27;;;;;;;5.78;1.45;;;;;;;19.65;59.76;100981.25;5030236;28;20659;-48
2023/10/04 11:32:56;;;;;;;5.88;1.05;;;;;;;19.90;59.74;100978.84;5027131;28;20056;-49
2023/10/04 11:35:32;;;;;;;4.03;1.27;;;;;;;20.15;59.11;100969.47;5028096;28;20045;-47
2023/10/04 11:38:05;;;;;;;5.30;1.27;;;;;;;20.40;59.01;100984.56;5017200;28;20148;-46
2023/10/04 11:40:32;;;;;;;2.75;0.93;;;;;;;20.52;57.58;100971.03;5017522;28;20077;-46
2023/10/04 11:43:00;;;;;;;5.20;1.42;;;;;;;20.65;57.81;100962.75;5017640;28;20049;-45
2023/10/04 11:45:28;;;;;;;8.98;2.88;;;;;;;20.79;57.20;100965.84;5014187;28;20498;-47